Time;durP1;ratioP1;P1;durP2;ratioP2;P2;SDS_P1;SDS_P2;PMS_P1;PMS_P2;Temp;Humidity;BMP_temperature;BMP_pressure;BME280_temperature;BME280_humidity;BME280_pressure;Samples;Min_cycle;Max_cycle;Signal;HPM_P1;HPM_P2
2023/05/15 00:01:24;;;;;;;10.70;9.60;;;;;;;12.83;78.91;100178.23;105738;1253;75003;-48
2023/05/15 00:03:53;;;;;;;11.80;9.40;;;;;;;12.80;79.20;100178.18;105794;1262;82471;-46
2023/05/15 00:06:22;;;;;;;11.70;10.30;;;;;;;12.79;79.68;100174.23;105788;1251;73721;-47
2023/05/15 00:08:50;;;;;;;11.60;10.40;;;;;;;12.78;79.88;100175.46;105750;1253;69915;-47
2023/05/15 00:11:20;;;;;;;15.60;10.90;;;;;;;12.78;80.02;100175.98;105721;1251;69864;-47
2023/05/15 00:13:49;;;;;;;11.60;10.30;;;;;;;12.81;80.20;100177.77;105763;1250;73609;-47
2023/05/15 00:16:17;;;;;;;11.20;10.00;;;;;;;12.84;80.44;100175.54;105764;1253;82581;-47
2023/05/15 00:18:46;;;;;;;11.80;10.60;;;;;;;12.83;80.41;100171.86;105754;1253;73557;-47
2023/05/15 00:21:14;;;;;;;12.80;11.20;;;;;;;12.82;80.62;100172.48;105660;1251;69858;-46
2023/05/15 00:23:42;;;;;;;11.90;10.60;;;;;;;12.80;80.84;100171.34;105721;1253;69922;-47
2023/05/15 00:26:14;;;;;;;11.50;10.30;;;;;;;12.79;80.94;100162.30;105691;1253;75273;-46
2023/05/15 00:28:42;;;;;;;12.70;10.20;;;;;;;12.76;81.30;100159.06;105737;1254;82387;-46
2023/05/15 00:31:11;;;;;;;11.40;10.10;;;;;;;12.75;81.57;100161.23;105627;1251;73477;-46
2023/05/15 00:33:40;;;;;;;13.20;10.70;;;;;;;12.75;81.93;100160.55;105770;1254;70187;-47
2023/05/15 00:36:10;;;;;;;12.20;10.50;;;;;;;12.75;81.99;100154.59;105955;1249;69977;-46
2023/05/15 00:38:38;;;;;;;12.00;10.80;;;;;;;12.73;82.24;100153.42;105546;1251;74091;-47
2023/05/15 00:41:06;;;;;;;13.00;11.60;;;;;;;12.72;82.36;100145.95;105741;1254;83107;-47
2023/05/15 00:43:39;;;;;;;12.10;10.40;;;;;;;12.71;82.67;100144.44;105957;1253;74596;-47
2023/05/15 00:46:08;;;;;;;13.50;10.40;;;;;;;12.69;82.66;100140.48;105949;1251;69960;-47
2023/05/15 00:48:36;;;;;;;12.30;10.40;;;;;;;12.68;82.81;100137.37;105683;1249;70522;-46
2023/05/15 00:51:05;;;;;;;11.50;10.20;;;;;;;12.67;82.83;100134.11;106000;1251;74652;-48
2023/05/15 00:53:33;;;;;;;11.30;10.00;;;;;;;12.65;83.13;100137.36;105593;1254;83468;-47
2023/05/15 00:56:02;;;;;;;13.70;11.10;;;;;;;12.65;83.46;100132.67;105707;1251;73760;-46
2023/05/15 00:58:31;;;;;;;13.50;10.90;;;;;;;12.64;83.60;100127.61;105664;1251;69887;-46
2023/05/15 01:00:59;;;;;;;12.80;11.40;;;;;;;12.64;83.57;100122.00;105694;1251;69965;-46
2023/05/15 01:03:27;;;;;;;11.90;10.00;;;;;;;12.63;83.84;100116.25;105900;1254;74580;-46
2023/05/15 01:05:56;;;;;;;12.70;10.60;;;;;;;12.61;83.78;100111.98;105954;1253;82524;-47
2023/05/15 01:08:43;;;;;;;12.40;11.00;;;;;;;12.58;84.00;100099.66;105837;1251;73410;-46
2023/05/15 01:11:13;;;;;;;17.00;12.80;;;;;;;12.56;83.80;100090.54;105729;1253;69815;-46
2023/05/15 01:13:42;;;;;;;13.90;11.70;;;;;;;12.53;83.92;100085.77;105990;1249;69943;-47
2023/05/15 01:16:10;;;;;;;13.30;12.00;;;;;;;12.52;84.11;100078.98;105959;1251;74638;-46
2023/05/15 01:18:39;;;;;;;13.00;11.60;;;;;;;12.49;83.90;100070.84;105895;1251;82137;-47
2023/05/15 01:21:16;;;;;;;12.90;11.40;;;;;;;12.46;84.01;100064.33;105891;1252;72646;-47
2023/05/15 01:23:52;;;;;;;16.30;12.50;;;;;;;12.41;83.95;100052.70;105741;1254;70034;-47
2023/05/15 01:26:59;;;;;;;16.00;11.70;;;;;;;12.33;83.86;100045.37;105668;1254;69992;-47
2023/05/15 01:29:58;;;;;;;13.80;12.20;;;;;;;12.23;83.93;100038.34;105995;1251;74004;-47
2023/05/15 01:33:17;;;;;;;15.10;12.60;;;;;;;12.14;83.95;100034.05;105835;1254;82997;-47
2023/05/15 01:35:50;;;;;;;14.70;11.90;;;;;;;12.04;84.28;100020.00;105760;1254;74222;-47
2023/05/15 01:38:28;;;;;;;15.90;12.90;;;;;;;11.99;84.44;100018.48;105929;1251;69925;-46
2023/05/15 01:41:02;;;;;;;13.30;11.90;;;;;;;11.95;84.80;100009.23;105877;1254;69938;-46
2023/05/15 01:43:31;;;;;;;13.80;12.40;;;;;;;11.93;85.14;100005.67;105894;1253;75273;-46
2023/05/15 01:46:01;;;;;;;16.00;12.70;;;;;;;11.90;85.28;99999.70;105723;1253;83776;-46
2023/05/15 01:48:32;;;;;;;14.80;12.60;;;;;;;11.91;85.58;99994.58;105960;1253;73695;-47
2023/05/15 01:51:02;;;;;;;13.60;12.20;;;;;;;11.90;85.56;99990.25;105623;1251;70002;-47
2023/05/15 01:53:32;;;;;;;13.60;12.20;;;;;;;11.88;85.58;99986.48;105742;1251;70089;-46
2023/05/15 01:56:01;;;;;;;14.60;12.90;;;;;;;11.88;85.91;99984.58;105846;1254;74997;-47
2023/05/15 01:58:31;;;;;;;13.70;12.30;;;;;;;11.86;85.71;99983.95;105663;1250;81639;-46
2023/05/15 02:00:59;;;;;;;14.60;12.80;;;;;;;11.85;86.01;99984.15;105899;1254;73670;-46
2023/05/15 02:03:29;;;;;;;14.60;12.20;;;;;;;11.87;86.57;99979.38;105824;1251;70627;-46
2023/05/15 02:05:58;;;;;;;14.50;11.80;;;;;;;11.89;86.66;99982.22;105911;1254;69989;-46
2023/05/15 02:08:27;;;;;;;14.00;12.10;;;;;;;11.91;86.73;99985.98;105737;1251;73933;-47
2023/05/15 02:10:57;;;;;;;12.60;11.30;;;;;;;11.95;86.78;99989.48;105775;1251;82351;-46
2023/05/15 02:13:25;;;;;;;13.80;12.30;;;;;;;11.97;86.88;99995.33;105926;1250;72763;-45
2023/05/15 02:15:54;;;;;;;14.30;12.80;;;;;;;12.00;87.29;100004.30;105937;1251;69841;-47
2023/05/15 02:18:23;;;;;;;14.50;12.30;;;;;;;12.00;87.23;100006.19;105899;1249;70561;-46
2023/05/15 02:20:51;;;;;;;14.80;12.50;;;;;;;12.02;87.23;100012.40;105757;1251;75204;-46
2023/05/15 02:23:22;;;;;;;13.90;12.50;;;;;;;12.05;87.59;100011.89;105892;1254;82505;-47
2023/05/15 02:26:12;;;;;;;16.10;12.90;;;;;;;12.10;87.84;100026.55;105878;1253;73813;-47
2023/05/15 02:28:47;;;;;;;14.60;12.30;;;;;;;12.11;87.59;100035.44;105945;1251;69970;-46
2023/05/15 02:31:37;;;;;;;19.40;12.70;;;;;;;12.11;87.55;100038.77;105737;1253;70076;-47
2023/05/15 02:34:17;;;;;;;14.60;13.00;;;;;;;12.10;87.71;100044.94;105933;1251;73945;-47
2023/05/15 02:36:47;;;;;;;15.70;14.10;;;;;;;12.09;87.94;100044.14;105688;1254;83396;-47
2023/05/15 02:39:17;;;;;;;14.80;13.30;;;;;;;12.06;87.97;100033.73;105902;1251;73815;-47
2023/05/15 02:41:46;;;;;;;16.50;13.50;;;;;;;12.08;88.22;100023.68;105924;1250;69976;-48
2023/05/15 02:44:16;;;;;;;14.90;13.00;;;;;;;12.10;88.42;100014.80;105654;1252;69912;-48
2023/05/15 02:46:46;;;;;;;16.50;12.80;;;;;;;12.12;88.28;100003.36;105934;1251;73832;-49
2023/05/15 02:49:14;;;;;;;16.90;13.50;;;;;;;12.09;88.11;99987.38;105826;1255;82281;-47
2023/05/15 02:51:43;;;;;;;14.30;12.80;;;;;;;12.06;88.48;99979.66;105952;1254;72600;-49
2023/05/15 02:54:11;;;;;;;15.80;13.60;;;;;;;12.00;88.47;99968.35;105904;1251;70002;-49
2023/05/15 02:56:39;;;;;;;16.50;14.40;;;;;;;11.97;88.79;99963.81;105673;1254;69986;-48
2023/05/15 02:59:08;;;;;;;16.10;14.50;;;;;;;11.94;88.96;99952.91;106014;1253;74893;-49
2023/05/15 03:01:36;;;;;;;16.70;14.90;;;;;;;11.92;89.02;99949.53;105893;1253;83194;-48
2023/05/15 03:04:04;;;;;;;14.90;13.30;;;;;;;11.86;89.18;99942.80;105930;1253;73556;-47
2023/05/15 03:06:33;;;;;;;16.70;13.60;;;;;;;11.82;89.18;99934.90;105887;1251;70081;-48
2023/05/15 03:09:01;;;;;;;15.10;13.50;;;;;;;11.78;89.21;99935.31;105700;1252;70037;-49
2023/05/15 03:11:29;;;;;;;16.10;13.80;;;;;;;11.74;89.64;99931.45;105903;1251;74212;-49
2023/05/15 03:13:59;;;;;;;14.80;13.10;;;;;;;11.72;89.78;99926.30;105844;1253;81500;-49
2023/05/15 03:16:27;;;;;;;15.80;13.00;;;;;;;11.70;89.96;99921.34;105917;1251;72861;-49
2023/05/15 03:18:55;;;;;;;16.20;13.30;;;;;;;11.67;89.97;99912.73;105948;1253;70017;-49
2023/05/15 03:21:24;;;;;;;15.80;13.00;;;;;;;11.66;90.40;99908.77;105934;1253;69957;-51
2023/05/15 03:23:52;;;;;;;15.30;13.20;;;;;;;11.65;90.62;99903.92;105838;1254;74905;-49
2023/05/15 03:26:20;;;;;;;14.70;13.10;;;;;;;11.64;91.01;99902.90;105986;1253;82092;-49
2023/05/15 03:28:48;;;;;;;12.70;11.10;;;;;;;11.65;91.22;99895.17;105897;1251;72751;-50
2023/05/15 03:31:17;;;;;;;14.00;12.50;;;;;;;11.66;91.30;99895.65;105859;1250;70011;-49
2023/05/15 03:33:48;;;;;;;12.90;11.40;;;;;;;11.66;91.55;99888.81;105958;1253;70060;-49
2023/05/15 03:36:17;;;;;;;13.70;12.00;;;;;;;11.65;91.56;99885.38;105693;1254;74607;-49
2023/05/15 03:38:45;;;;;;;11.80;10.30;;;;;;;11.64;91.61;99878.92;105906;1250;83471;-49
2023/05/15 03:41:13;;;;;;;14.70;11.80;;;;;;;11.64;91.95;99869.86;105895;1253;73760;-49
2023/05/15 03:43:41;;;;;;;14.90;12.80;;;;;;;11.63;92.02;99861.67;105900;1251;69977;-49
2023/05/15 03:46:10;;;;;;;14.10;12.00;;;;;;;11.59;91.92;99855.00;105919;1253;70001;-50
2023/05/15 03:48:41;;;;;;;13.80;12.10;;;;;;;11.56;91.89;99851.16;105877;1251;73418;-48
2023/05/15 03:51:09;;;;;;;13.00;11.40;;;;;;;11.54;92.11;99844.77;105694;1251;83424;-48
2023/05/15 03:53:37;;;;;;;12.70;11.30;;;;;;;11.54;92.43;99841.65;105891;1251;73859;-49
2023/05/15 03:56:06;;;;;;;12.80;11.40;;;;;;;11.52;92.35;99835.63;105692;1250;70008;-48
2023/05/15 03:58:34;;;;;;;13.20;11.60;;;;;;;11.49;92.40;99829.08;105639;1255;69975;-48
2023/05/15 04:01:03;;;;;;;13.10;11.70;;;;;;;11.46;92.34;99825.59;105973;1250;74944;-50
2023/05/15 04:03:31;;;;;;;12.50;11.20;;;;;;;11.44;92.61;99820.24;105881;1251;83134;-48
2023/05/15 04:05:59;;;;;;;13.80;11.30;;;;;;;11.42;92.74;99814.92;105866;1251;73735;-48
2023/05/15 04:08:27;;;;;;;11.70;10.50;;;;;;;11.40;92.83;99811.55;105999;1253;69982;-48
2023/05/15 04:10:56;;;;;;;15.10;12.00;;;;;;;11.39;93.00;99808.62;105895;1253;70078;-49
2023/05/15 04:13:24;;;;;;;13.60;11.30;;;;;;;11.39;93.35;99812.80;105950;1253;74681;-48
2023/05/15 04:15:53;;;;;;;12.60;11.30;;;;;;;11.41;93.53;99810.63;105883;1253;83318;-49
2023/05/15 04:18:21;;;;;;;14.90;11.70;;;;;;;11.43;93.77;99814.20;105932;1251;72683;-47
2023/05/15 04:20:50;;;;;;;11.90;10.70;;;;;;;11.43;93.53;99813.30;105905;1254;69925;-50
2023/05/15 04:23:18;;;;;;;13.90;11.30;;;;;;;11.44;93.72;99814.52;105941;1249;69880;-48
2023/05/15 04:25:47;;;;;;;13.60;11.40;;;;;;;11.44;93.88;99813.96;105901;1251;74814;-50
2023/05/15 04:28:15;;;;;;;14.50;11.20;;;;;;;11.45;93.86;99811.98;105925;1253;83450;-48
2023/05/15 04:30:44;;;;;;;13.70;11.30;;;;;;;11.47;93.98;99811.20;105869;1251;73362;-48
2023/05/15 04:33:12;;;;;;;13.00;11.60;;;;;;;11.48;94.09;99805.89;105855;1251;69978;-48
2023/05/15 04:35:40;;;;;;;13.20;11.10;;;;;;;11.50;94.29;99804.40;105780;1251;70006;-47
2023/05/15 04:38:08;;;;;;;14.40;12.40;;;;;;;11.51;94.17;99805.77;105748;1250;74460;-47
2023/05/15 04:40:37;;;;;;;13.80;11.30;;;;;;;11.51;94.40;99807.48;105977;1253;84030;-47
2023/05/15 04:43:05;;;;;;;15.10;12.30;;;;;;;11.54;94.51;99813.30;105876;1251;73764;-47
2023/05/15 04:45:33;;;;;;;14.00;11.60;;;;;;;11.56;94.63;99813.71;105944;1253;69995;-47
2023/05/15 04:48:01;;;;;;;14.10;12.40;;;;;;;11.57;94.50;99813.48;105705;1253;69967;-47
2023/05/15 04:50:30;;;;;;;14.40;12.90;;;;;;;11.59;94.65;99812.69;105886;1252;74919;-47
2023/05/15 04:52:58;;;;;;;13.90;12.00;;;;;;;11.59;94.69;99812.48;106126;1250;83325;-49
2023/05/15 04:55:26;;;;;;;13.40;12.00;;;;;;;11.62;94.82;99806.08;105718;1253;73850;-47
2023/05/15 04:57:54;;;;;;;13.40;12.00;;;;;;;11.62;94.93;99806.06;105855;1254;69927;-47
2023/05/15 05:00:23;;;;;;;13.10;11.40;;;;;;;11.63;94.96;99806.34;105973;1250;69992;-47
2023/05/15 05:02:51;;;;;;;14.20;12.30;;;;;;;11.65;95.06;99806.81;105707;1251;73930;-48
2023/05/15 05:05:19;;;;;;;13.10;11.70;;;;;;;11.66;95.10;99801.67;105845;1253;83356;-47
2023/05/15 05:07:50;;;;;;;17.10;12.50;;;;;;;11.66;95.11;99801.67;105643;1253;73925;-47
2023/05/15 05:10:18;;;;;;;13.80;11.80;;;;;;;11.66;95.20;99797.63;105864;1250;69982;-47
2023/05/15 05:12:46;;;;;;;14.80;12.40;;;;;;;11.65;95.24;99792.23;105671;1251;69950;-48
2023/05/15 05:15:15;;;;;;;14.00;12.40;;;;;;;11.64;95.06;99793.02;105760;1251;74792;-48
2023/05/15 05:17:43;;;;;;;15.40;12.70;;;;;;;11.64;95.55;99789.86;105822;1253;83512;-47
2023/05/15 05:20:12;;;;;;;15.40;13.60;;;;;;;11.64;95.45;99791.10;105759;1251;72784;-47
2023/05/15 05:22:41;;;;;;;15.10;12.60;;;;;;;11.63;95.60;99787.29;105870;1253;69938;-48
2023/05/15 05:25:09;;;;;;;15.80;13.80;;;;;;;11.64;95.63;99785.67;105805;1251;71127;-48
2023/05/15 05:27:38;;;;;;;16.00;13.20;;;;;;;11.64;95.59;99787.60;105824;1253;74631;-47
2023/05/15 05:30:07;;;;;;;17.20;15.10;;;;;;;11.62;95.78;99783.14;106115;1250;83824;-47
2023/05/15 05:32:35;;;;;;;18.50;16.40;;;;;;;11.60;95.78;99778.64;105723;1253;73414;-48
2023/05/15 05:35:04;;;;;;;22.10;19.40;;;;;;;11.60;95.85;99778.52;105704;1253;69986;-48
2023/05/15 05:37:32;;;;;;;17.50;13.70;;;;;;;11.62;95.78;99768.23;105879;1253;169317;-47
2023/05/15 05:40:01;;;;;;;17.70;13.90;;;;;;;11.60;95.87;99763.77;105759;1253;74488;-48
2023/05/15 05:42:29;;;;;;;15.70;14.00;;;;;;;11.64;96.32;99765.20;105919;1253;82476;-47
2023/05/15 05:44:57;;;;;;;15.30;13.60;;;;;;;11.66;96.60;99763.84;105803;1251;74173;-47
2023/05/15 05:47:26;;;;;;;17.90;15.00;;;;;;;11.69;96.84;99760.71;105753;1251;70659;-48
2023/05/15 05:49:54;;;;;;;16.40;14.10;;;;;;;11.71;96.64;99757.66;105681;1253;69993;-47
2023/05/15 05:52:22;;;;;;;19.30;14.40;;;;;;;11.68;96.37;99756.05;105757;1251;74982;-47
2023/05/15 05:54:51;;;;;;;15.80;14.10;;;;;;;11.68;96.53;99749.38;105981;1251;83389;-47
2023/05/15 05:57:19;;;;;;;15.40;13.80;;;;;;;11.70;96.90;99745.11;105812;1251;73628;-47
2023/05/15 05:59:48;;;;;;;14.40;12.90;;;;;;;11.73;96.94;99742.84;105801;1253;69969;-47
2023/05/15 06:02:17;;;;;;;15.50;13.50;;;;;;;11.75;96.71;99742.88;105899;1253;69919;-47
2023/05/15 06:04:45;;;;;;;16.50;13.60;;;;;;;11.74;96.67;99739.84;105976;1253;75007;-47
2023/05/15 06:07:14;;;;;;;15.00;13.50;;;;;;;11.74;96.77;99735.30;105782;1253;83691;-47
2023/05/15 06:09:44;;;;;;;16.10;14.30;;;;;;;11.73;96.77;99731.27;105878;1250;73270;-47
2023/05/15 06:12:12;;;;;;;;;;;;;;;11.73;96.98;99729.88;106064;1250;70353;-48
2023/05/15 06:14:41;;;;;;;15.40;13.90;;;;;;;11.72;97.01;99723.12;105868;1251;70259;-50
2023/05/15 06:17:09;;;;;;;16.70;14.10;;;;;;;11.72;97.11;99723.30;105887;1253;74875;-48
2023/05/15 06:19:37;;;;;;;17.90;14.80;;;;;;;11.72;97.20;99722.43;106190;1253;83423;-49
2023/05/15 06:22:05;;;;;;;18.40;14.60;;;;;;;11.73;97.28;99715.52;105859;1252;73357;-47
2023/05/15 06:24:34;;;;;;;16.50;13.40;;;;;;;11.76;97.36;99707.85;105809;1249;70001;-48
2023/05/15 06:27:02;;;;;;;16.40;13.10;;;;;;;11.77;97.34;99704.10;105879;1251;69977;-47
2023/05/15 06:29:30;;;;;;;14.50;12.90;;;;;;;11.78;97.26;99701.28;105959;1251;74663;-48
2023/05/15 06:31:58;;;;;;;16.00;14.10;;;;;;;11.78;97.47;99699.87;105742;1251;82030;-47
2023/05/15 06:34:27;;;;;;;18.70;14.90;;;;;;;11.80;97.67;99693.45;105731;1253;71839;-48
2023/05/15 06:36:55;;;;;;;17.60;14.90;;;;;;;11.83;97.57;99692.44;105918;1253;69915;-47
2023/05/15 06:39:23;;;;;;;18.30;14.60;;;;;;;11.85;97.68;99685.86;105874;1253;69905;-47
2023/05/15 06:41:56;;;;;;;16.50;14.60;;;;;;;11.88;97.78;99685.73;105668;1251;73885;-46
2023/05/15 06:44:25;;;;;;;18.30;13.90;;;;;;;11.90;97.76;99682.30;105924;1250;82473;-48
2023/05/15 06:46:53;;;;;;;17.30;13.90;;;;;;;11.91;97.72;99682.40;105821;1249;73831;-48
2023/05/15 06:49:23;;;;;;;15.60;13.90;;;;;;;11.89;97.54;99677.27;105902;1253;69975;-47
2023/05/15 06:51:51;;;;;;;14.60;12.90;;;;;;;11.88;97.67;99676.30;105761;1250;69871;-47
2023/05/15 06:54:20;;;;;;;16.10;14.10;;;;;;;11.89;97.83;99675.34;105776;1250;73476;-48
2023/05/15 06:56:48;;;;;;;17.90;15.30;;;;;;;11.91;97.87;99669.81;105817;1250;83506;-50
2023/05/15 06:59:16;;;;;;;16.80;14.10;;;;;;;11.94;97.93;99666.99;105772;1253;72940;-47
2023/05/15 07:01:44;;;;;;;15.70;14.00;;;;;;;11.96;98.05;99665.83;105860;1253;70068;-47
2023/05/15 07:04:13;;;;;;;15.50;13.80;;;;;;;12.01;98.14;99666.94;105742;1251;69919;-47
2023/05/15 07:06:42;;;;;;;15.80;14.10;;;;;;;12.06;98.17;99664.23;105867;1250;74780;-46
2023/05/15 07:09:11;;;;;;;16.60;14.40;;;;;;;12.10;98.15;99664.20;105813;1253;83187;-46
2023/05/15 07:11:41;;;;;;;16.50;14.10;;;;;;;12.13;98.14;99660.53;105934;1253;74056;-46
2023/05/15 07:14:09;;;;;;;16.50;14.70;;;;;;;12.17;98.15;99657.54;105733;1250;69999;-46
2023/05/15 07:16:37;;;;;;;20.20;14.30;;;;;;;12.19;98.20;99656.54;105830;1253;70234;-47
2023/05/15 07:19:07;;;;;;;16.20;13.60;;;;;;;12.24;98.30;99652.77;105818;1253;73452;-47
2023/05/15 07:21:37;;;;;;;15.60;13.80;;;;;;;12.27;98.16;99653.77;105859;1253;83142;-46
2023/05/15 07:24:06;;;;;;;15.50;13.80;;;;;;;12.31;98.22;99648.69;105852;1253;73376;-46
2023/05/15 07:26:35;;;;;;;17.30;14.40;;;;;;;12.35;98.37;99650.20;105933;1253;69935;-46
2023/05/15 07:29:23;;;;;;;15.70;13.80;;;;;;;12.39;98.52;99648.37;105762;1251;69999;-46
2023/05/15 07:31:52;;;;;;;17.60;14.80;;;;;;;12.44;98.48;99645.51;105883;1249;74890;-47
2023/05/15 07:34:20;;;;;;;16.10;14.00;;;;;;;12.48;98.37;99646.83;105980;1253;83375;-46
2023/05/15 07:36:49;;;;;;;15.90;14.20;;;;;;;12.54;98.64;99644.40;105756;1253;73014;-46
2023/05/15 07:39:17;;;;;;;15.70;13.40;;;;;;;12.57;98.40;99645.80;105911;1253;69919;-46
2023/05/15 07:41:46;;;;;;;14.90;13.40;;;;;;;12.62;98.31;99645.51;105787;1251;69961;-47
2023/05/15 07:44:14;;;;;;;14.80;13.30;;;;;;;12.66;98.30;99642.52;105847;1250;75408;-46
2023/05/15 07:46:44;;;;;;;15.00;12.70;;;;;;;12.69;98.13;99640.02;105775;1250;82812;-46
2023/05/15 07:49:12;;;;;;;15.60;13.30;;;;;;;12.76;98.33;99641.05;105725;1251;73861;-46
2023/05/15 07:51:41;;;;;;;18.60;14.00;;;;;;;12.82;98.03;99640.00;105830;1253;70027;-48
2023/05/15 07:54:09;;;;;;;15.20;13.50;;;;;;;12.87;98.20;99637.56;106079;1253;69876;-46
2023/05/15 07:56:38;;;;;;;14.90;12.80;;;;;;;12.91;98.11;99635.38;105988;1252;74616;-46
2023/05/15 07:59:06;;;;;;;15.10;13.50;;;;;;;12.97;98.02;99631.18;105763;1253;83392;-46
2023/05/15 08:01:35;;;;;;;15.00;13.20;;;;;;;13.02;97.88;99627.59;105907;1253;72836;-46
2023/05/15 08:04:07;;;;;;;14.20;12.70;;;;;;;13.06;97.68;99629.59;106022;1250;69988;-46
2023/05/15 08:06:37;;;;;;;15.20;12.80;;;;;;;13.14;97.89;99625.11;105985;1250;70082;-46
2023/05/15 08:09:05;;;;;;;14.50;12.90;;;;;;;13.22;97.85;99622.90;105809;1251;74377;-46
2023/05/15 08:11:34;;;;;;;14.00;12.20;;;;;;;13.29;97.74;99624.25;105894;1253;83130;-47
2023/05/15 08:14:03;;;;;;;14.40;12.70;;;;;;;13.32;97.58;99619.30;105927;1251;72381;-47
2023/05/15 08:16:31;;;;;;;14.00;12.40;;;;;;;13.35;97.28;99618.09;105797;1250;70004;-46
2023/05/15 08:19:03;;;;;;;15.60;11.00;;;;;;;13.36;96.96;99615.76;105772;1253;70012;-46
2023/05/15 08:21:32;;;;;;;12.70;11.10;;;;;;;13.39;96.99;99610.96;105989;1250;74741;-46
2023/05/15 08:24:00;;;;;;;13.60;11.70;;;;;;;13.44;96.88;99609.63;106001;1250;83350;-46
2023/05/15 08:26:28;;;;;;;11.90;10.70;;;;;;;13.50;97.25;99607.33;105807;1250;73746;-46
2023/05/15 08:28:56;;;;;;;12.20;11.00;;;;;;;13.56;96.86;99605.89;105773;1253;70027;-46
2023/05/15 08:31:25;;;;;;;11.60;10.50;;;;;;;13.65;96.93;99602.20;105939;1251;69967;-46
2023/05/15 08:33:53;;;;;;;11.60;10.30;;;;;;;13.75;96.64;99603.69;105795;1250;74642;-46
2023/05/15 08:36:21;;;;;;;11.90;10.70;;;;;;;13.82;96.34;99601.63;105845;1253;84385;-47
2023/05/15 08:38:50;;;;;;;11.30;10.10;;;;;;;13.91;96.08;99597.42;105819;1250;72803;-46
2023/05/15 08:41:32;;;;;;;14.00;11.10;;;;;;;13.96;95.96;99597.91;105897;1253;69998;-47
2023/05/15 08:44:09;;;;;;;11.00;9.90;;;;;;;14.10;95.88;99595.49;105873;1250;69922;-46
2023/05/15 08:46:38;;;;;;;;;;;;;;;14.15;95.37;99594.80;105865;1250;75407;-46
2023/05/15 08:49:44;;;;;;;9.90;8.80;;;;;;;14.21;95.17;99593.36;105849;1253;84128;-47
2023/05/15 08:52:14;;;;;;;10.70;9.00;;;;;;;14.28;94.84;99592.02;105910;1250;72333;-46
2023/05/15 08:54:42;;;;;;;10.90;9.30;;;;;;;14.33;94.71;99592.40;105853;1251;69855;-47
2023/05/15 08:57:13;;;;;;;9.20;8.30;;;;;;;14.42;94.91;99588.80;105905;1251;69992;-47
2023/05/15 08:59:42;;;;;;;9.30;8.50;;;;;;;14.57;94.94;99587.35;105662;1256;74980;-46
2023/05/15 09:02:10;;;;;;;9.10;8.20;;;;;;;14.71;95.03;99586.39;105831;1253;82362;-46
2023/05/15 09:04:39;;;;;;;8.40;7.60;;;;;;;14.85;94.33;99584.44;105932;1250;73716;-47
2023/05/15 09:07:08;;;;;;;8.20;7.40;;;;;;;14.89;93.19;99583.80;105777;1251;69999;-49
2023/05/15 09:09:38;;;;;;;9.50;7.40;;;;;;;14.89;92.50;99581.51;105927;1253;70079;-46
2023/05/15 09:12:17;;;;;;;8.40;7.50;;;;;;;14.99;92.69;99581.48;106065;1253;73024;-47
2023/05/15 09:14:46;;;;;;;8.70;7.70;;;;;;;15.17;92.76;99574.52;105804;1253;83262;-47
2023/05/15 09:17:14;;;;;;;8.10;7.30;;;;;;;15.26;92.26;99572.77;105796;1250;73897;-46
2023/05/15 09:19:42;;;;;;;7.60;6.80;;;;;;;15.27;91.65;99577.85;105905;1250;70399;-46
2023/05/15 09:22:23;;;;;;;9.30;7.60;;;;;;;15.28;91.75;99575.30;105773;1253;69929;-46
2023/05/15 09:24:51;;;;;;;9.70;8.50;;;;;;;15.25;91.34;99574.77;105853;1251;74903;-47
2023/05/15 09:27:20;;;;;;;7.90;7.20;;;;;;;15.21;91.36;99575.60;105917;1251;83372;-47
2023/05/15 09:29:53;;;;;;;7.40;6.70;;;;;;;15.19;91.20;99575.71;105711;1251;73879;-47
2023/05/15 09:32:21;;;;;;;7.30;6.60;;;;;;;15.16;90.75;99576.14;106024;1251;69987;-48
2023/05/15 09:34:50;;;;;;;9.20;8.10;;;;;;;15.05;90.50;99577.41;105917;1256;70071;-48
2023/05/15 09:37:32;;;;;;;8.60;7.80;;;;;;;14.97;90.67;99575.02;106140;1253;74925;-48
2023/05/15 09:40:08;;;;;;;9.20;8.30;;;;;;;14.89;90.67;99577.80;105771;1253;83374;-48
2023/05/15 09:42:37;;;;;;;8.70;7.60;;;;;;;14.82;90.47;99578.95;105948;1251;72391;-48
2023/05/15 09:45:16;;;;;;;9.30;8.40;;;;;;;14.77;90.78;99577.38;106026;1251;69875;-47
2023/05/15 09:47:45;;;;;;;8.50;7.70;;;;;;;14.72;90.85;99577.52;105901;1250;69964;-49
2023/05/15 09:50:20;;;;;;;8.30;7.40;;;;;;;14.67;90.95;99580.52;106130;1253;73864;-48
2023/05/15 09:52:50;;;;;;;9.40;8.40;;;;;;;14.59;90.62;99582.45;105953;1250;83360;-47
2023/05/15 09:55:20;;;;;;;7.80;7.00;;;;;;;14.55;90.51;99583.81;105937;1251;73719;-48
2023/05/15 09:58:05;;;;;;;10.70;7.50;;;;;;;14.53;90.60;99580.06;106064;1253;70072;-48
2023/05/15 10:00:34;;;;;;;8.00;7.00;;;;;;;14.55;91.09;99581.14;106093;1253;70002;-48
2023/05/15 10:03:04;;;;;;;7.40;6.70;;;;;;;14.53;90.78;99582.00;105943;1251;75111;-47
2023/05/15 10:05:33;;;;;;;7.50;6.70;;;;;;;14.51;90.94;99582.25;105866;1253;83884;-50
2023/05/15 10:08:11;;;;;;;10.40;7.30;;;;;;;14.50;90.91;99583.75;105774;1253;73016;-48
2023/05/15 10:10:40;;;;;;;7.80;6.80;;;;;;;14.51;91.15;99583.48;105924;1251;69903;-51
2023/05/15 10:13:10;;;;;;;7.80;7.00;;;;;;;14.50;91.13;99576.70;105937;1249;70024;-49
2023/05/15 10:15:39;;;;;;;7.30;6.60;;;;;;;14.51;91.20;99576.98;105880;1253;72992;-51
2023/05/15 10:18:07;;;;;;;8.00;7.30;;;;;;;14.54;91.22;99573.70;105890;1253;83017;-47
2023/05/15 10:20:36;;;;;;;9.30;7.40;;;;;;;14.57;91.61;99573.83;105770;1254;74053;-47
2023/05/15 10:23:05;;;;;;;8.50;7.70;;;;;;;14.59;91.39;99568.23;105839;1251;73184;-48
2023/05/15 10:26:00;;;;;;;7.90;6.50;;;;;;;14.62;91.21;99567.31;105722;1256;69961;-49
2023/05/15 10:28:30;;;;;;;7.00;6.30;;;;;;;14.68;91.43;99564.09;105929;1250;75228;-48
2023/05/15 10:31:00;;;;;;;6.40;5.60;;;;;;;14.74;91.30;99565.77;105997;1251;82653;-47
2023/05/15 10:33:28;;;;;;;5.90;5.40;;;;;;;14.77;91.00;99567.20;105690;1251;73769;-47
2023/05/15 10:35:58;;;;;;;6.10;5.50;;;;;;;14.73;91.05;99566.72;105901;1250;70016;-48
2023/05/15 10:38:26;;;;;;;6.30;5.20;;;;;;;14.73;90.92;99569.05;105834;1253;69928;-48
2023/05/15 10:40:57;;;;;;;6.50;5.80;;;;;;;14.71;90.83;99569.15;105762;1251;75135;-47
2023/05/15 10:43:44;;;;;;;6.40;5.80;;;;;;;14.67;90.94;99569.23;105780;1253;83260;-47
2023/05/15 10:46:14;;;;;;;6.60;6.00;;;;;;;14.60;90.50;99570.27;105933;1253;73115;-48
2023/05/15 10:48:43;;;;;;;6.50;5.80;;;;;;;14.55;90.58;99570.42;105753;1253;69996;-48
2023/05/15 10:51:16;;;;;;;6.70;6.10;;;;;;;14.50;90.47;99569.31;105759;1251;69993;-47
2023/05/15 10:53:44;;;;;;;7.30;6.50;;;;;;;14.44;90.56;99565.29;105892;1251;75993;-48
2023/05/15 10:56:16;;;;;;;7.20;6.40;;;;;;;14.41;90.55;99563.90;106196;1251;82416;-47
2023/05/15 10:58:49;;;;;;;7.20;6.10;;;;;;;14.38;90.47;99560.61;105747;1251;73771;-48
2023/05/15 11:01:38;;;;;;;7.10;6.30;;;;;;;14.28;90.16;99559.15;105881;1250;69909;-47
2023/05/15 11:04:10;;;;;;;8.10;6.80;;;;;;;14.24;90.70;99558.02;105890;1251;69995;-48
2023/05/15 11:06:44;;;;;;;7.40;6.70;;;;;;;14.25;90.81;99555.11;105939;1250;74689;-47
2023/05/15 11:09:23;;;;;;;8.70;6.80;;;;;;;14.30;90.95;99554.65;105822;1252;82621;-47
2023/05/15 11:11:59;;;;;;;7.70;6.90;;;;;;;14.34;90.89;99554.52;105852;1251;72777;-48
2023/05/15 11:14:33;;;;;;;8.20;6.50;;;;;;;14.40;90.62;99557.48;105727;1250;69947;-47
2023/05/15 11:17:06;;;;;;;9.20;7.10;;;;;;;14.43;90.63;99556.23;106043;1253;70561;-47
2023/05/15 11:19:50;;;;;;;7.20;6.40;;;;;;;14.55;90.59;99552.27;105988;1253;73795;-47
2023/05/15 11:22:21;;;;;;;7.70;6.90;;;;;;;14.69;90.78;99552.24;105829;1250;83359;-47
2023/05/15 11:24:51;;;;;;;7.60;6.80;;;;;;;14.83;91.17;99550.23;105834;1251;73935;-47
2023/05/15 11:27:38;;;;;;;7.20;6.50;;;;;;;14.99;90.57;99545.42;105863;1251;69901;-48